sensor_id;sensor_type;location;lat;lon;timestamp;pressure;altitude;pressure_sealevel;temperature;humidity
50790;BME280;37287;47.554;7.844;2022-12-18T00:01:21;98773.84;;;-3.14;100.00
50790;BME280;37287;47.554;7.844;2022-12-18T00:03:48;98785.53;;;-3.15;100.00
50790;BME280;37287;47.554;7.844;2022-12-18T00:06:18;98785.53;;;-3.15;100.00
50790;BME280;37287;47.554;7.844;2022-12-18T00:08:45;98801.41;;;-3.15;100.00
50790;BME280;37287;47.554;7.844;2022-12-18T00:11:16;98794.50;;;-3.16;100.00
50790;BME280;37287;47.554;7.844;2022-12-18T00:13:47;98777.56;;;-3.15;100.00
50790;BME280;37287;47.554;7.844;2022-12-18T00:16:16;98779.41;;;-3.16;100.00
50790;BME280;37287;47.554;7.844;2022-12-18T00:18:45;98791.06;;;-3.17;100.00
50790;BME280;37287;47.554;7.844;2022-12-18T00:21:17;98788.66;;;-3.18;100.00
50790;BME280;37287;47.554;7.844;2022-12-18T00:23:46;98785.22;;;-3.19;100.00
50790;BME280;37287;47.554;7.844;2022-12-18T00:26:15;98779.16;;;-3.19;100.00
50790;BME280;37287;47.554;7.844;2022-12-18T00:28:43;98787.09;;;-3.19;100.00
50790;BME280;37287;47.554;7.844;2022-12-18T00:31:13;98775.94;;;-3.21;100.00
50790;BME280;37287;47.554;7.844;2022-12-18T00:33:41;98777.00;;;-3.22;100.00
50790;BME280;37287;47.554;7.844;2022-12-18T00:36:14;98793.72;;;-3.22;100.00
50790;BME280;37287;47.554;7.844;2022-12-18T00:38:41;98791.06;;;-3.22;100.00
50790;BME280;37287;47.554;7.844;2022-12-18T00:41:09;98790.25;;;-3.22;100.00
50790;BME280;37287;47.554;7.844;2022-12-18T00:43:39;98787.88;;;-3.24;100.00
50790;BME280;37287;47.554;7.844;2022-12-18T00:46:06;98796.88;;;-3.25;100.00
50790;BME280;37287;47.554;7.844;2022-12-18T00:48:35;98789.72;;;-3.24;100.00
50790;BME280;37287;47.554;7.844;2022-12-18T00:51:06;98794.25;;;-3.25;100.00
50790;BME280;37287;47.554;7.844;2022-12-18T00:53:35;98777.28;;;-3.24;100.00
50790;BME280;37287;47.554;7.844;2022-12-18T00:56:02;98788.69;;;-3.23;100.00
50790;BME280;37287;47.554;7.844;2022-12-18T00:58:30;98769.59;;;-3.25;100.00
50790;BME280;37287;47.554;7.844;2022-12-18T01:00:57;98784.44;;;-3.24;100.00
50790;BME280;37287;47.554;7.844;2022-12-18T01:03:23;98798.47;;;-3.24;100.00
50790;BME280;37287;47.554;7.844;2022-12-18T01:05:54;98804.56;;;-3.23;100.00
50790;BME280;37287;47.554;7.844;2022-12-18T01:08:21;98804.56;;;-3.23;100.00
50790;BME280;37287;47.554;7.844;2022-12-18T01:10:47;98797.66;;;-3.24;100.00
50790;BME280;37287;47.554;7.844;2022-12-18T01:13:16;98804.00;;;-3.25;100.00
50790;BME280;37287;47.554;7.844;2022-12-18T01:15:49;98805.88;;;-3.26;100.00
50790;BME280;37287;47.554;7.844;2022-12-18T01:18:16;98798.72;;;-3.25;100.00
50790;BME280;37287;47.554;7.844;2022-12-18T01:20:43;98799.81;;;-3.26;100.00
50790;BME280;37287;47.554;7.844;2022-12-18T01:23:09;98806.66;;;-3.25;100.00
50790;BME280;37287;47.554;7.844;2022-12-18T01:25:38;98801.38;;;-3.25;100.00
50790;BME280;37287;47.554;7.844;2022-12-18T01:28:04;98815.69;;;-3.26;100.00
50790;BME280;37287;47.554;7.844;2022-12-18T01:30:31;98818.06;;;-3.25;100.00
50790;BME280;37287;47.554;7.844;2022-12-18T01:32:58;98820.72;;;-3.25;100.00
50790;BME280;37287;47.554;7.844;2022-12-18T01:35:24;98818.84;;;-3.24;100.00
50790;BME280;37287;47.554;7.844;2022-12-18T01:37:54;98837.41;;;-3.24;100.00
50790;BME280;37287;47.554;7.844;2022-12-18T01:40:25;98826.53;;;-3.23;100.00
50790;BME280;37287;47.554;7.844;2022-12-18T01:42:52;98831.84;;;-3.23;100.00
50790;BME280;37287;47.554;7.844;2022-12-18T01:45:31;98839.00;;;-3.23;100.00
50790;BME280;37287;47.554;7.844;2022-12-18T01:48:04;98837.91;;;-3.22;100.00
50790;BME280;37287;47.554;7.844;2022-12-18T01:50:36;98837.13;;;-3.23;100.00
50790;BME280;37287;47.554;7.844;2022-12-18T01:53:16;98837.69;;;-3.21;100.00
50790;BME280;37287;47.554;7.844;2022-12-18T01:58:15;98843.78;;;-3.20;100.00
50790;BME280;37287;47.554;7.844;2022-12-18T02:00:45;98831.31;;;-3.20;100.00
50790;BME280;37287;47.554;7.844;2022-12-18T02:03:14;98830.53;;;-3.20;100.00
50790;BME280;37287;47.554;7.844;2022-12-18T02:05:47;98830.53;;;-3.20;100.00
50790;BME280;37287;47.554;7.844;2022-12-18T02:08:34;98827.34;;;-3.17;100.00
50790;BME280;37287;47.554;7.844;2022-12-18T02:11:18;98824.69;;;-3.17;100.00
50790;BME280;37287;47.554;7.844;2022-12-18T02:19:00;98833.19;;;-3.15;100.00
50790;BME280;37287;47.554;7.844;2022-12-18T02:24:32;98836.91;;;-3.16;100.00
50790;BME280;37287;47.554;7.844;2022-12-18T02:27:07;98840.59;;;-3.17;100.00
50790;BME280;37287;47.554;7.844;2022-12-18T02:29:48;98829.47;;;-3.14;100.00
50790;BME280;37287;47.554;7.844;2022-12-18T02:32:45;98828.69;;;-3.15;100.00
50790;BME280;37287;47.554;7.844;2022-12-18T02:35:16;98831.06;;;-3.13;100.00
50790;BME280;37287;47.554;7.844;2022-12-18T02:37:47;98833.72;;;-3.13;100.00
50790;BME280;37287;47.554;7.844;2022-12-18T02:40:15;98849.88;;;-3.15;100.00
50790;BME280;37287;47.554;7.844;2022-12-18T02:42:43;98850.66;;;-3.14;100.00
50790;BME280;37287;47.554;7.844;2022-12-18T02:45:10;98846.19;;;-3.14;100.00
50790;BME280;37287;47.554;7.844;2022-12-18T02:47:39;98846.97;;;-3.13;100.00
50790;BME280;37287;47.554;7.844;2022-12-18T02:50:10;98843.78;;;-3.15;100.00
50790;BME280;37287;47.554;7.844;2022-12-18T02:55:28;98846.94;;;-3.18;100.00
50790;BME280;37287;47.554;7.844;2022-12-18T03:01:18;98848.53;;;-3.17;100.00
50790;BME280;37287;47.554;7.844;2022-12-18T03:03:57;98848.53;;;-3.17;100.00
50790;BME280;37287;47.554;7.844;2022-12-18T03:08:59;98867.34;;;-3.19;100.00
50790;BME280;37287;47.554;7.844;2022-12-18T03:11:29;98857.78;;;-3.20;100.00
50790;BME280;37287;47.554;7.844;2022-12-18T03:14:19;98857.00;;;-3.20;100.00
50790;BME280;37287;47.554;7.844;2022-12-18T03:16:49;98857.78;;;-3.20;100.00
50790;BME280;37287;47.554;7.844;2022-12-18T03:19:21;98860.44;;;-3.20;100.00
50790;BME280;37287;47.554;7.844;2022-12-18T03:21:53;98858.06;;;-3.21;100.00
50790;BME280;37287;47.554;7.844;2022-12-18T03:24:25;98866.00;;;-3.21;100.00
50790;BME280;37287;47.554;7.844;2022-12-18T03:26:57;98847.72;;;-3.23;100.00
50790;BME280;37287;47.554;7.844;2022-12-18T03:29:32;98856.72;;;-3.24;100.00
50790;BME280;37287;47.554;7.844;2022-12-18T03:32:30;98857.81;;;-3.25;100.00
50790;BME280;37287;47.554;7.844;2022-12-18T03:35:04;98849.03;;;-3.25;100.00
50790;BME280;37287;47.554;7.844;2022-12-18T03:37:32;98849.03;;;-3.25;100.00
50790;BME280;37287;47.554;7.844;2022-12-18T03:39:59;98851.44;;;-3.24;100.00
50790;BME280;37287;47.554;7.844;2022-12-18T03:42:32;98836.34;;;-3.23;100.00
50790;BME280;37287;47.554;7.844;2022-12-18T03:45:13;98858.59;;;-3.24;100.00
50790;BME280;37287;47.554;7.844;2022-12-18T03:56:00;98847.47;;;-3.26;100.00
50790;BME280;37287;47.554;7.844;2022-12-18T03:58:31;98838.97;;;-3.29;100.00
50790;BME280;37287;47.554;7.844;2022-12-18T04:01:02;98845.06;;;-3.28;100.00
50790;BME280;37287;47.554;7.844;2022-12-18T04:03:33;98851.44;;;-3.29;100.00
50790;BME280;37287;47.554;7.844;2022-12-18T04:06:05;98842.16;;;-3.32;100.00
50790;BME280;37287;47.554;7.844;2022-12-18T04:08:33;98842.66;;;-3.30;100.00
50790;BME280;37287;47.554;7.844;2022-12-18T04:11:02;98848.50;;;-3.33;100.00
50790;BME280;37287;47.554;7.844;2022-12-18T04:13:38;98850.34;;;-3.33;100.00
50790;BME280;37287;47.554;7.844;2022-12-18T04:16:06;98859.09;;;-3.33;100.00
50790;BME280;37287;47.554;7.844;2022-12-18T04:18:39;98850.09;;;-3.32;100.00
50790;BME280;37287;47.554;7.844;2022-12-18T04:21:05;98850.63;;;-3.35;100.00
50790;BME280;37287;47.554;7.844;2022-12-18T04:23:32;98858.56;;;-3.35;100.00
50790;BME280;37287;47.554;7.844;2022-12-18T04:25:58;98846.09;;;-3.34;100.00
50790;BME280;37287;47.554;7.844;2022-12-18T04:28:25;98858.28;;;-3.33;100.00
50790;BME280;37287;47.554;7.844;2022-12-18T04:30:51;98857.47;;;-3.34;100.00
50790;BME280;37287;47.554;7.844;2022-12-18T04:33:20;98847.41;;;-3.37;100.00
50790;BME280;37287;47.554;7.844;2022-12-18T04:35:47;98872.31;;;-3.38;100.00
50790;BME280;37287;47.554;7.844;2022-12-18T04:38:13;98851.66;;;-3.36;100.00
50790;BME280;37287;47.554;7.844;2022-12-18T04:40:40;98851.13;;;-3.38;100.00
50790;BME280;37287;47.554;7.844;2022-12-18T04:43:07;98835.25;;;-3.38;100.00
50790;BME280;37287;47.554;7.844;2022-12-18T04:45:34;98856.44;;;-3.38;100.00
50790;BME280;37287;47.554;7.844;2022-12-18T04:48:02;98852.44;;;-3.35;100.00
50790;BME280;37287;47.554;7.844;2022-12-18T04:50:29;98851.66;;;-3.36;100.00
50790;BME280;37287;47.554;7.844;2022-12-18T04:52:56;98837.38;;;-3.35;100.00
50790;BME280;37287;47.554;7.844;2022-12-18T04:55:23;98850.63;;;-3.35;100.00
50790;BME280;37287;47.554;7.844;2022-12-18T04:57:52;98840.81;;;-3.34;100.00
50790;BME280;37287;47.554;7.844;2022-12-18T05:00:19;98846.88;;;-3.34;100.00
50790;BME280;37287;47.554;7.844;2022-12-18T05:03:00;98847.69;;;-3.33;100.00
50790;BME280;37287;47.554;7.844;2022-12-18T05:05:30;98839.50;;;-3.32;100.00
50790;BME280;37287;47.554;7.844;2022-12-18T05:07:56;98847.69;;;-3.33;100.00
50790;BME280;37287;47.554;7.844;2022-12-18T05:10:23;98843.47;;;-3.29;100.00
50790;BME280;37287;47.554;7.844;2022-12-18T05:12:50;98834.72;;;-3.30;100.00
50790;BME280;37287;47.554;7.844;2022-12-18T05:15:31;98845.06;;;-3.28;100.00
50790;BME280;37287;47.554;7.844;2022-12-18T05:18:00;98842.66;;;-3.30;100.00
50790;BME280;37287;47.554;7.844;2022-12-18T05:20:28;98842.16;;;-3.32;100.00
50790;BME280;37287;47.554;7.844;2022-12-18T05:22:59;98864.38;;;-3.33;100.00
50790;BME280;37287;47.554;7.844;2022-12-18T05:25:26;98842.66;;;-3.30;100.00
50790;BME280;37287;47.554;7.844;2022-12-18T05:27:52;98859.91;;;-3.32;100.00
50790;BME280;37287;47.554;7.844;2022-12-18T05:30:21;98858.03;;;-3.32;100.00
50790;BME280;37287;47.554;7.844;2022-12-18T05:32:48;98862.53;;;-3.32;100.00
50790;BME280;37287;47.554;7.844;2022-12-18T05:35:15;98868.09;;;-3.29;100.00
50790;BME280;37287;47.554;7.844;2022-12-18T05:37:48;98869.16;;;-3.30;100.00
50790;BME280;37287;47.554;7.844;2022-12-18T05:40:14;98865.97;;;-3.32;100.00
50790;BME280;37287;47.554;7.844;2022-12-18T05:42:41;98862.81;;;-3.29;100.00
50790;BME280;37287;47.554;7.844;2022-12-18T05:45:14;98864.94;;;-3.25;100.00
50790;BME280;37287;47.554;7.844;2022-12-18T05:47:40;98866.00;;;-3.26;100.00
50790;BME280;37287;47.554;7.844;2022-12-18T05:50:07;98868.41;;;-3.25;100.00
50790;BME280;37287;47.554;7.844;2022-12-18T05:52:36;98875.53;;;-3.25;100.00
50790;BME280;37287;47.554;7.844;2022-12-18T05:55:03;98877.66;;;-3.28;100.00
50790;BME280;37287;47.554;7.844;2022-12-18T05:57:30;98865.44;;;-3.29;100.00
50790;BME280;37287;47.554;7.844;2022-12-18T05:59:58;98864.66;;;-3.29;100.00
50790;BME280;37287;47.554;7.844;2022-12-18T06:02:25;98863.59;;;-3.28;100.00
50790;BME280;37287;47.554;7.844;2022-12-18T06:04:52;98875.78;;;-3.27;100.00
50790;BME280;37287;47.554;7.844;2022-12-18T06:07:20;98881.34;;;-3.29;100.00
50790;BME280;37287;47.554;7.844;2022-12-18T06:09:46;98881.34;;;-3.29;100.00
50790;BME280;37287;47.554;7.844;2022-12-18T06:12:13;98888.25;;;-3.28;100.00
50790;BME280;37287;47.554;7.844;2022-12-18T06:14:41;98889.84;;;-3.26;100.00
50790;BME280;37287;47.554;7.844;2022-12-18T06:17:08;98894.06;;;-3.25;100.00
50790;BME280;37287;47.554;7.844;2022-12-18T06:19:34;98886.63;;;-3.29;100.00
50790;BME280;37287;47.554;7.844;2022-12-18T06:22:03;98909.13;;;-3.31;100.00
50790;BME280;37287;47.554;7.844;2022-12-18T06:24:29;98903.06;;;-3.32;100.00
50790;BME280;37287;47.554;7.844;2022-12-18T06:26:58;98909.13;;;-3.31;100.00
50790;BME280;37287;47.554;7.844;2022-12-18T06:29:29;98895.63;;;-3.30;100.00
50790;BME280;37287;47.554;7.844;2022-12-18T06:31:55;98907.03;;;-3.29;100.00
50790;BME280;37287;47.554;7.844;2022-12-18T06:34:22;98912.34;;;-3.29;100.00
50790;BME280;37287;47.554;7.844;2022-12-18T06:36:49;98928.75;;;-3.32;100.00
50790;BME280;37287;47.554;7.844;2022-12-18T06:39:17;98909.69;;;-3.29;100.00
50790;BME280;37287;47.554;7.844;2022-12-18T06:41:45;98898.28;;;-3.30;100.00
50790;BME280;37287;47.554;7.844;2022-12-18T06:44:12;98914.72;;;-3.28;100.00
50790;BME280;37287;47.554;7.844;2022-12-18T06:46:38;98907.81;;;-3.29;100.00
50790;BME280;37287;47.554;7.844;2022-12-18T06:49:07;98921.06;;;-3.29;100.00
50790;BME280;37287;47.554;7.844;2022-12-18T06:51:39;98924.22;;;-3.32;100.00
50790;BME280;37287;47.554;7.844;2022-12-18T06:54:08;98904.38;;;-3.29;100.00
50790;BME280;37287;47.554;7.844;2022-12-18T06:56:34;98909.13;;;-3.31;100.00
50790;BME280;37287;47.554;7.844;2022-12-18T06:59:03;98913.09;;;-3.34;100.00
50790;BME280;37287;47.554;7.844;2022-12-18T07:01:29;98921.03;;;-3.34;100.00
50790;BME280;37287;47.554;7.844;2022-12-18T07:03:56;98925.53;;;-3.34;100.00
50790;BME280;37287;47.554;7.844;2022-12-18T07:06:25;98904.13;;;-3.28;100.00
50790;BME280;37287;47.554;7.844;2022-12-18T07:08:53;98929.78;;;-3.28;100.00
50790;BME280;37287;47.554;7.844;2022-12-18T07:11:21;98923.72;;;-3.29;100.00
50790;BME280;37287;47.554;7.844;2022-12-18T07:13:48;98916.31;;;-3.26;100.00
50790;BME280;37287;47.554;7.844;2022-12-18T07:16:17;98916.31;;;-3.26;100.00
50790;BME280;37287;47.554;7.844;2022-12-18T07:18:50;98920.53;;;-3.25;100.00
50790;BME280;37287;47.554;7.844;2022-12-18T07:21:22;98913.94;;;-3.23;100.00
50790;BME280;37287;47.554;7.844;2022-12-18T07:23:51;98919.22;;;-3.23;100.00
50790;BME280;37287;47.554;7.844;2022-12-18T07:26:20;98927.97;;;-3.22;100.00
50790;BME280;37287;47.554;7.844;2022-12-18T07:28:50;98926.66;;;-3.20;100.00
50790;BME280;37287;47.554;7.844;2022-12-18T07:31:19;98928.56;;;-3.15;100.00
50790;BME280;37287;47.554;7.844;2022-12-18T07:33:47;98930.38;;;-3.16;100.00
50790;BME280;37287;47.554;7.844;2022-12-18T07:36:14;98936.50;;;-3.15;100.00
50790;BME280;37287;47.554;7.844;2022-12-18T07:38:41;98936.50;;;-3.10;100.00
50790;BME280;37287;47.554;7.844;2022-12-18T07:41:10;98929.88;;;-3.07;100.00
50790;BME280;37287;47.554;7.844;2022-12-18T07:43:38;98945.53;;;-3.06;100.00
50790;BME280;37287;47.554;7.844;2022-12-18T07:46:08;98954.25;;;-3.05;100.00
50790;BME280;37287;47.554;7.844;2022-12-18T07:48:37;98939.19;;;-3.05;100.00
50790;BME280;37287;47.554;7.844;2022-12-18T07:51:16;98958.25;;;-3.03;100.00
50790;BME280;37287;47.554;7.844;2022-12-18T07:53:44;98958.81;;;-3.01;100.00
50790;BME280;37287;47.554;7.844;2022-12-18T07:56:11;98978.94;;;-3.00;100.00
50790;BME280;37287;47.554;7.844;2022-12-18T07:58:54;98967.28;;;-2.99;100.00
50790;BME280;37287;47.554;7.844;2022-12-18T08:01:20;98969.94;;;-2.99;100.00
50790;BME280;37287;47.554;7.844;2022-12-18T08:03:47;98969.41;;;-2.96;100.00
50790;BME280;37287;47.554;7.844;2022-12-18T08:06:15;98987.47;;;-2.92;100.00
50790;BME280;37287;47.554;7.844;2022-12-18T08:08:42;98979.78;;;-2.89;100.00
50790;BME280;37287;47.554;7.844;2022-12-18T08:11:09;98994.34;;;-2.86;100.00
50790;BME280;37287;47.554;7.844;2022-12-18T08:13:36;98991.19;;;-2.83;100.00
50790;BME280;37287;47.554;7.844;2022-12-18T08:16:05;98992.00;;;-2.83;100.00
50790;BME280;37287;47.554;7.844;2022-12-18T08:18:34;99004.19;;;-2.82;100.00
50790;BME280;37287;47.554;7.844;2022-12-18T08:21:12;98988.31;;;-2.77;100.00
50790;BME280;37287;47.554;7.844;2022-12-18T08:23:41;99002.91;;;-2.74;100.00
50790;BME280;37287;47.554;7.844;2022-12-18T08:26:12;98996.00;;;-2.75;100.00
50790;BME280;37287;47.554;7.844;2022-12-18T08:28:39;98994.38;;;-2.76;100.00
50790;BME280;37287;47.554;7.844;2022-12-18T08:31:08;99008.19;;;-2.74;100.00
50790;BME280;37287;47.554;7.844;2022-12-18T08:33:37;98997.06;;;-2.71;100.00
50790;BME280;37287;47.554;7.844;2022-12-18T08:36:05;98992.28;;;-2.69;100.00
50790;BME280;37287;47.554;7.844;2022-12-18T08:38:34;98993.91;;;-2.68;100.00
50790;BME280;37287;47.554;7.844;2022-12-18T08:41:01;98990.97;;;-2.66;100.00
50790;BME280;37287;47.554;7.844;2022-12-18T08:43:31;99000.00;;;-2.62;100.00
50790;BME280;37287;47.554;7.844;2022-12-18T08:46:20;98997.38;;;-2.57;100.00
50790;BME280;37287;47.554;7.844;2022-12-18T08:48:47;98998.16;;;-2.56;100.00
50790;BME280;37287;47.554;7.844;2022-12-18T08:51:16;98996.56;;;-2.57;100.00
50790;BME280;37287;47.554;7.844;2022-12-18T08:53:45;98998.72;;;-2.54;100.00
50790;BME280;37287;47.554;7.844;2022-12-18T08:56:13;98993.94;;;-2.52;100.00
50790;BME280;37287;47.554;7.844;2022-12-18T08:58:40;98981.72;;;-2.53;100.00
50790;BME280;37287;47.554;7.844;2022-12-18T09:01:10;98979.88;;;-2.48;100.00
50790;BME280;37287;47.554;7.844;2022-12-18T09:03:38;98984.66;;;-2.45;100.00
50790;BME280;37287;47.554;7.844;2022-12-18T09:06:06;99000.06;;;-2.42;100.00
50790;BME280;37287;47.554;7.844;2022-12-18T09:08:33;98992.38;;;-2.38;100.00
50790;BME280;37287;47.554;7.844;2022-12-18T09:11:00;98998.22;;;-2.36;100.00
50790;BME280;37287;47.554;7.844;2022-12-18T09:13:28;99004.34;;;-2.30;100.00
50790;BME280;37287;47.554;7.844;2022-12-18T09:15:58;99024.75;;;-2.26;100.00
50790;BME280;37287;47.554;7.844;2022-12-18T09:18:25;99022.13;;;-2.20;100.00
50790;BME280;37287;47.554;7.844;2022-12-18T09:20:51;99012.81;;;-2.18;100.00
50790;BME280;37287;47.554;7.844;2022-12-18T09:23:20;99017.38;;;-2.13;100.00
50790;BME280;37287;47.554;7.844;2022-12-18T09:25:58;99017.91;;;-2.06;100.00
50790;BME280;37287;47.554;7.844;2022-12-18T09:28:27;99013.38;;;-1.95;100.00
50790;BME280;37287;47.554;7.844;2022-12-18T09:30:54;99005.97;;;-1.83;100.00
50790;BME280;37287;47.554;7.844;2022-12-18T09:33:20;99008.63;;;-1.83;100.00
50790;BME280;37287;47.554;7.844;2022-12-18T09:35:51;99010.75;;;-1.54;100.00
50790;BME280;37287;47.554;7.844;2022-12-18T09:38:20;99018.66;;;-1.33;100.00
50790;BME280;37287;47.554;7.844;2022-12-18T09:40:52;99009.41;;;-1.41;100.00
50790;BME280;37287;47.554;7.844;2022-12-18T09:46:02;99017.31;;;-1.10;100.00
50790;BME280;37287;47.554;7.844;2022-12-18T09:48:35;99024.53;;;-0.56;100.00
50790;BME280;37287;47.554;7.844;2022-12-18T09:51:11;99023.94;;;-0.42;94.53
50790;BME280;37287;47.554;7.844;2022-12-18T09:53:45;99032.16;;;0.06;95.40
50790;BME280;37287;47.554;7.844;2022-12-18T09:56:16;99032.91;;;0.17;93.56
50790;BME280;37287;47.554;7.844;2022-12-18T09:58:59;99031.53;;;0.54;89.55
50790;BME280;37287;47.554;7.844;2022-12-18T10:01:27;99025.84;;;0.61;90.34
50790;BME280;37287;47.554;7.844;2022-12-18T10:04:08;99034.00;;;0.99;87.89
50790;BME280;37287;47.554;7.844;2022-12-18T10:06:49;99024.81;;;1.10;87.68
50790;BME280;37287;47.554;7.844;2022-12-18T10:09:27;99029.25;;;0.96;86.70
50790;BME280;37287;47.554;7.844;2022-12-18T10:12:06;99011.09;;;1.41;86.52
50790;BME280;37287;47.554;7.844;2022-12-18T10:20:47;99022.34;;;1.38;83.01
50790;BME280;37287;47.554;7.844;2022-12-18T10:23:27;99006.13;;;1.10;86.86
50790;BME280;37287;47.554;7.844;2022-12-18T10:26:13;98996.50;;;0.90;86.28
50790;BME280;37287;47.554;7.844;2022-12-18T10:28:41;99020.78;;;0.89;85.44
50790;BME280;37287;47.554;7.844;2022-12-18T10:31:26;99010.00;;;0.75;86.33
50790;BME280;37287;47.554;7.844;2022-12-18T10:33:57;98992.88;;;0.57;88.56
50790;BME280;37287;47.554;7.844;2022-12-18T10:36:24;98999.19;;;0.61;88.87
50790;BME280;37287;47.554;7.844;2022-12-18T10:38:51;99004.41;;;0.47;90.72
50790;BME280;37287;47.554;7.844;2022-12-18T10:41:26;98994.44;;;0.58;91.11
50790;BME280;37287;47.554;7.844;2022-12-18T10:44:18;98993.06;;;0.31;91.10
50790;BME280;37287;47.554;7.844;2022-12-18T10:46:55;98997.66;;;0.84;91.19
50790;BME280;37287;47.554;7.844;2022-12-18T10:49:34;98988.66;;;0.75;89.80
50790;BME280;37287;47.554;7.844;2022-12-18T10:52:15;98988.28;;;0.87;86.66
50790;BME280;37287;47.554;7.844;2022-12-18T10:54:52;98994.34;;;1.16;87.04
50790;BME280;37287;47.554;7.844;2022-12-18T10:57:37;98986.88;;;0.94;86.74
50790;BME280;37287;47.554;7.844;2022-12-18T11:00:24;98982.84;;;0.43;89.96
50790;BME280;37287;47.554;7.844;2022-12-18T11:02:54;98969.28;;;0.69;90.85
50790;BME280;37287;47.554;7.844;2022-12-18T11:05:25;98977.09;;;0.60;91.21
50790;BME280;37287;47.554;7.844;2022-12-18T11:07:53;98974.56;;;0.45;90.91
50790;BME280;37287;47.554;7.844;2022-12-18T11:10:28;98967.38;;;0.16;91.87
50790;BME280;37287;47.554;7.844;2022-12-18T11:13:18;98954.72;;;0.32;92.07
50790;BME280;37287;47.554;7.844;2022-12-18T11:15:45;98983.88;;;0.18;92.54
50790;BME280;37287;47.554;7.844;2022-12-18T11:18:33;98982.72;;;-0.05;93.45
50790;BME280;37287;47.554;7.844;2022-12-18T11:21:06;98983.81;;;-0.11;94.70
50790;BME280;37287;47.554;7.844;2022-12-18T11:23:36;98965.13;;;-0.01;97.65
50790;BME280;37287;47.554;7.844;2022-12-18T11:26:13;98973.03;;;0.09;94.56
50790;BME280;37287;47.554;7.844;2022-12-18T11:28:49;98973.63;;;0.01;95.95
50790;BME280;37287;47.554;7.844;2022-12-18T11:31:29;98946.06;;;-0.19;94.34
50790;BME280;37287;47.554;7.844;2022-12-18T11:34:13;98951.41;;;-0.19;96.76
50790;BME280;37287;47.554;7.844;2022-12-18T11:37:00;98957.75;;;-0.14;96.70
50790;BME280;37287;47.554;7.844;2022-12-18T11:42:09;98957.25;;;-0.16;96.46
50790;BME280;37287;47.554;7.844;2022-12-18T11:44:49;98963.66;;;-0.23;97.16
50790;BME280;37287;47.554;7.844;2022-12-18T11:47:25;98950.31;;;-0.12;95.82
50790;BME280;37287;47.554;7.844;2022-12-18T11:50:00;98943.22;;;0.07;96.28
50790;BME280;37287;47.554;7.844;2022-12-18T11:52:38;98949.44;;;-0.03;96.02
50790;BME280;37287;47.554;7.844;2022-12-18T11:55:14;98943.94;;;-0.16;97.33
50790;BME280;37287;47.554;7.844;2022-12-18T11:57:54;98947.16;;;-0.20;96.94
50790;BME280;37287;47.554;7.844;2022-12-18T12:00:25;98949.66;;;0.01;96.93
50790;BME280;37287;47.554;7.844;2022-12-18T12:10:51;98924.72;;;-0.08;95.22
50790;BME280;37287;47.554;7.844;2022-12-18T12:16:15;98936.56;;;-0.25;96.15
50790;BME280;37287;47.554;7.844;2022-12-18T12:18:52;98932.63;;;-0.32;98.37
50790;BME280;37287;47.554;7.844;2022-12-18T12:27:17;98927.06;;;-0.41;98.37
50790;BME280;37287;47.554;7.844;2022-12-18T12:38:16;98913.38;;;-0.59;100.00
50790;BME280;37287;47.554;7.844;2022-12-18T12:41:00;98906.44;;;-0.55;100.00
50790;BME280;37287;47.554;7.844;2022-12-18T12:43:40;98900.06;;;-0.59;100.00
50790;BME280;37287;47.554;7.844;2022-12-18T12:46:18;98884.66;;;-0.62;100.00
50790;BME280;37287;47.554;7.844;2022-12-18T12:48:51;98899.38;;;-0.75;100.00
50790;BME280;37287;47.554;7.844;2022-12-18T12:51:32;98894.06;;;-0.75;100.00
50790;BME280;37287;47.554;7.844;2022-12-18T12:54:05;98900.94;;;-0.74;100.00
50790;BME280;37287;47.554;7.844;2022-12-18T13:01:59;98901.19;;;-0.65;100.00
50790;BME280;37287;47.554;7.844;2022-12-18T13:04:50;98910.78;;;-0.69;100.00
50790;BME280;37287;47.554;7.844;2022-12-18T13:07:30;98902.00;;;-0.70;100.00
50790;BME280;37287;47.554;7.844;2022-12-18T13:13:00;98922.22;;;-0.68;100.00
50790;BME280;37287;47.554;7.844;2022-12-18T13:15:44;98908.94;;;-0.74;100.00
50790;BME280;37287;47.554;7.844;2022-12-18T13:18:13;98899.06;;;-0.68;100.00
50790;BME280;37287;47.554;7.844;2022-12-18T13:21:08;98903.41;;;-0.82;100.00
50790;BME280;37287;47.554;7.844;2022-12-18T13:23:38;98909.00;;;-0.84;100.00
50790;BME280;37287;47.554;7.844;2022-12-18T13:31:15;98912.75;;;-0.90;100.00
50790;BME280;37287;47.554;7.844;2022-12-18T13:34:26;98898.72;;;-1.01;100.00
50790;BME280;37287;47.554;7.844;2022-12-18T13:39:58;98902.41;;;-0.92;100.00
50790;BME280;37287;47.554;7.844;2022-12-18T13:42:37;98902.91;;;-0.90;100.00
50790;BME280;37287;47.554;7.844;2022-12-18T13:45:44;98900.81;;;-0.98;100.00
50790;BME280;37287;47.554;7.844;2022-12-18T13:48:18;98893.94;;;-0.99;100.00
50790;BME280;37287;47.554;7.844;2022-12-18T13:50:52;98901.09;;;-0.99;100.00
50790;BME280;37287;47.554;7.844;2022-12-18T13:53:26;98888.66;;;-1.09;100.00
50790;BME280;37287;47.554;7.844;2022-12-18T13:55:54;98895.63;;;-1.18;100.00
50790;BME280;37287;47.554;7.844;2022-12-18T13:58:21;98904.38;;;-1.18;100.00
50790;BME280;37287;47.554;7.844;2022-12-18T14:00:48;98888.44;;;-1.18;100.00
50790;BME280;37287;47.554;7.844;2022-12-18T14:03:23;98889.28;;;-1.28;100.00
50790;BME280;37287;47.554;7.844;2022-12-18T14:05:55;98899.34;;;-1.25;100.00
50790;BME280;37287;47.554;7.844;2022-12-18T14:08:36;98892.97;;;-1.29;100.00
50790;BME280;37287;47.554;7.844;2022-12-18T14:11:19;98902.28;;;-1.26;100.00
50790;BME280;37287;47.554;7.844;2022-12-18T14:13:48;98898.28;;;-1.29;100.00
50790;BME280;37287;47.554;7.844;2022-12-18T14:16:18;98899.09;;;-1.28;100.00
50790;BME280;37287;47.554;7.844;2022-12-18T14:18:55;98900.13;;;-1.19;100.00
50790;BME280;37287;47.554;7.844;2022-12-18T14:21:37;98881.56;;;-1.24;100.00
50790;BME280;37287;47.554;7.844;2022-12-18T14:24:17;98890.31;;;-1.24;100.00
50790;BME280;37287;47.554;7.844;2022-12-18T14:26:46;98874.09;;;-1.22;100.00
50790;BME280;37287;47.554;7.844;2022-12-18T14:34:52;98881.84;;;-1.26;100.00
50790;BME280;37287;47.554;7.844;2022-12-18T14:37:26;98884.50;;;-1.31;100.00
50790;BME280;37287;47.554;7.844;2022-12-18T14:40:02;98877.63;;;-1.37;100.00
50790;BME280;37287;47.554;7.844;2022-12-18T14:42:37;98880.53;;;-1.33;100.00